createdAt,value
2019-04-16T00:01:32.399Z,99495.24
2019-04-16T00:06:52.387Z,99489.17
2019-04-16T00:11:55.950Z,99480.33
2019-04-16T00:16:57.516Z,99473.97
2019-04-16T00:22:00.996Z,99458.00
2019-04-16T00:27:03.290Z,99457.70
2019-04-16T00:32:09.141Z,99458.41
2019-04-16T00:37:10.420Z,99449.66
2019-04-16T00:42:12.090Z,99439.66
2019-04-16T00:47:13.760Z,99435.27
2019-04-16T00:52:15.327Z,99432.88
2019-04-16T00:57:17.973Z,99438.59
2019-04-16T01:02:20.412Z,99440.47
2019-04-16T01:07:22.082Z,99433.08
2019-04-16T01:12:23.850Z,99437.98
2019-04-16T01:17:25.629Z,99435.05
2019-04-16T01:22:27.300Z,99428.81
2019-04-16T01:27:36.759Z,99424.20
2019-04-16T01:32:57.060Z,99427.13
2019-04-16T01:38:16.865Z,99419.33
2019-04-16T01:43:19.759Z,99420.69
2019-04-16T01:48:21.621Z,99421.39
2019-04-16T01:53:23.403Z,99421.91
2019-04-16T01:58:24.933Z,99429.00
2019-04-16T02:03:26.699Z,99419.84
2019-04-16T02:08:31.142Z,99431.30
2019-04-16T02:13:32.775Z,99434.88
2019-04-16T02:18:34.518Z,99438.42
2019-04-16T02:23:36.082Z,99440.29
2019-04-16T02:28:37.660Z,99440.42
2019-04-16T02:33:39.323Z,99445.33
2019-04-16T02:38:46.380Z,99440.94
2019-04-16T02:43:44.415Z,99437.91
2019-04-16T02:48:49.939Z,99433.00
2019-04-16T02:53:54.479Z,99434.16
2019-04-16T02:58:57.104Z,99430.09
2019-04-16T03:04:13.010Z,99431.64
2019-04-16T03:09:15.695Z,99424.95
2019-04-16T03:14:17.579Z,99425.69
2019-04-16T03:19:21.142Z,99421.30
2019-04-16T03:24:22.910Z,99420.46
2019-04-16T03:29:24.477Z,99420.14
2019-04-16T03:34:26.203Z,99420.46
2019-04-16T03:39:27.885Z,99423.40
2019-04-16T03:44:29.554Z,99419.00
2019-04-16T03:49:31.331Z,99421.81
2019-04-16T03:54:33.195Z,99423.40
2019-04-16T03:59:34.973Z,99424.12
2019-04-16T04:04:36.747Z,99412.94
2019-04-16T04:09:38.314Z,99414.80
2019-04-16T04:14:39.970Z,99415.30
2019-04-16T04:19:43.513Z,99418.86
2019-04-16T04:24:45.477Z,99411.31
2019-04-16T04:29:48.161Z,99416.27
2019-04-16T04:34:49.842Z,99411.78
2019-04-16T04:39:51.520Z,99410.66
2019-04-16T04:44:53.154Z,99420.39
2019-04-16T04:49:54.726Z,99422.86
2019-04-16T04:54:56.314Z,99423.47
2019-04-16T04:59:57.881Z,99431.75
2019-04-16T05:05:01.397Z,99434.00
2019-04-16T05:10:07.538Z,99430.37
2019-04-16T05:15:08.281Z,99426.31
2019-04-16T05:20:14.839Z,99434.02
2019-04-16T05:25:13.514Z,99432.41
2019-04-16T05:30:19.950Z,99430.63
2019-04-16T05:35:18.909Z,99440.19
2019-04-16T05:40:20.677Z,99440.84
2019-04-16T05:45:22.693Z,99444.77
2019-04-16T05:50:28.493Z,99447.48
2019-04-16T05:55:35.621Z,99439.67
2019-04-16T06:00:41.691Z,99438.76
2019-04-16T06:05:43.750Z,99434.59
2019-04-16T06:10:49.947Z,99435.75
2019-04-16T06:15:52.967Z,99443.33
2019-04-16T06:20:54.687Z,99443.88
2019-04-16T06:26:16.631Z,99441.36
2019-04-16T06:31:39.408Z,99441.55
2019-04-16T06:36:45.157Z,99444.06
2019-04-16T06:41:55.785Z,99427.08
2019-04-16T06:47:10.590Z,99433.85
2019-04-16T06:52:15.876Z,99432.96
2019-04-16T06:57:18.989Z,99426.11
2019-04-16T07:02:28.480Z,99422.14
2019-04-16T07:07:39.584Z,99420.19
2019-04-16T07:12:38.663Z,99418.94
2019-04-16T07:17:40.390Z,99420.72
2019-04-16T07:22:42.217Z,99417.69
2019-04-16T07:27:45.843Z,99418.66
2019-04-16T07:33:05.535Z,99413.25
2019-04-16T07:38:12.017Z,99407.09
2019-04-16T07:43:32.019Z,99409.80
2019-04-16T07:48:36.557Z,99416.25
2019-04-16T07:53:56.463Z,99420.64
2019-04-16T07:59:01.328Z,99410.64
2019-04-16T08:04:03.179Z,99413.86
2019-04-16T08:09:06.174Z,99418.25
2019-04-16T08:14:09.816Z,99407.41
2019-04-16T08:19:12.148Z,99419.70
2019-04-16T08:24:26.409Z,99417.52
2019-04-16T08:29:28.579Z,99413.59
2019-04-16T08:34:30.197Z,99411.72
2019-04-16T08:39:31.762Z,99409.62
2019-04-16T08:44:35.812Z,99410.89
2019-04-16T08:49:36.889Z,99410.27
2019-04-16T08:54:38.589Z,99408.40
2019-04-16T08:59:42.615Z,99400.78
2019-04-16T09:04:43.810Z,99400.98
2019-04-16T09:09:47.327Z,99408.51
2019-04-16T09:14:54.941Z,99399.44
2019-04-16T09:19:54.868Z,99409.25
2019-04-16T09:24:59.651Z,99399.45
2019-04-16T09:30:10.228Z,99400.19
2019-04-16T09:35:20.317Z,99402.58
2019-04-16T09:40:30.663Z,99416.27
2019-04-16T09:45:33.899Z,99405.61
2019-04-16T09:50:36.217Z,99409.67
2019-04-16T09:55:37.986Z,99419.88
2019-04-16T10:00:41.421Z,99418.22
2019-04-16T10:05:43.170Z,99418.52
2019-04-16T10:10:44.913Z,99415.29
2019-04-16T10:15:47.691Z,99413.74
2019-04-16T10:20:49.545Z,99422.20
2019-04-16T10:25:51.318Z,99409.16
2019-04-16T10:30:54.401Z,99409.67
2019-04-16T10:35:57.534Z,99416.36
2019-04-16T10:41:10.546Z,99418.23
2019-04-16T10:46:27.588Z,99406.97
2019-04-16T10:51:36.830Z,99405.42
2019-04-16T10:56:58.348Z,99398.31
2019-04-16T11:02:02.102Z,99398.09
2019-04-16T11:07:11.419Z,99394.25
2019-04-16T11:12:13.096Z,99392.25
2019-04-16T11:17:16.205Z,99402.16
2019-04-16T11:22:18.060Z,99399.45
2019-04-16T11:27:19.845Z,99399.67
2019-04-16T11:32:25.985Z,99401.13
2019-04-16T11:37:27.849Z,99392.38
2019-04-16T11:42:29.424Z,99388.31
2019-04-16T11:47:33.992Z,99387.38
2019-04-16T11:52:34.830Z,99378.08
2019-04-16T11:57:36.629Z,99384.53
2019-04-16T12:02:49.123Z,99379.44
2019-04-16T12:08:09.524Z,99377.56
2019-04-16T12:13:19.285Z,99374.43
2019-04-16T12:18:25.764Z,99366.20
2019-04-16T12:23:29.985Z,99361.59
2019-04-16T12:28:46.616Z,99353.77
2019-04-16T12:33:52.701Z,99349.94
2019-04-16T12:38:54.360Z,99352.33
2019-04-16T12:43:58.927Z,99347.52
2019-04-16T12:49:17.677Z,99352.00
2019-04-16T12:54:33.340Z,99349.94
2019-04-16T12:59:55.010Z,99352.00
2019-04-16T13:05:01.594Z,99346.06
2019-04-16T13:10:07.381Z,99349.70
2019-04-16T13:15:14.952Z,99340.41
2019-04-16T13:20:31.592Z,99353.77
2019-04-16T13:25:35.218Z,99340.64
2019-04-16T13:30:37.084Z,99339.80
2019-04-16T13:35:38.776Z,99332.80
2019-04-16T13:40:41.474Z,99340.64
2019-04-16T13:45:43.527Z,99337.28
2019-04-16T13:50:47.140Z,99343.38
2019-04-16T13:56:08.127Z,99331.63
2019-04-16T14:01:14.547Z,99324.51
2019-04-16T14:06:16.329Z,99326.22
2019-04-16T14:11:19.684Z,99327.47
2019-04-16T14:16:21.514Z,99318.10
2019-04-16T14:21:23.584Z,99311.00
2019-04-16T14:26:25.264Z,99324.24
2019-04-16T14:31:27.352Z,99310.89
2019-04-16T14:36:29.321Z,99310.89
2019-04-16T14:41:31.478Z,99310.25
2019-04-16T14:46:33.276Z,99313.93
2019-04-16T14:51:34.942Z,99310.15
2019-04-16T14:56:41.116Z,99314.11
2019-04-16T15:01:50.272Z,99316.73
2019-04-16T15:06:53.776Z,99319.12
2019-04-16T15:12:02.167Z,99317.36
2019-04-16T15:17:03.469Z,99314.22
2019-04-16T15:22:23.339Z,99315.07
2019-04-16T15:27:31.664Z,99319.12
2019-04-16T15:32:41.825Z,99313.59
2019-04-16T15:37:45.561Z,99310.36
2019-04-16T15:42:50.424Z,99316.52
2019-04-16T15:47:54.292Z,99316.19
2019-04-16T15:53:00.534Z,99320.98
2019-04-16T15:58:07.763Z,99328.39
2019-04-16T16:03:28.150Z,99321.94
2019-04-16T16:08:47.018Z,99332.89
2019-04-16T16:13:48.892Z,99338.75
2019-04-16T16:18:50.770Z,99336.75
2019-04-16T16:23:52.440Z,99343.32
2019-04-16T16:28:54.539Z,99348.03
2019-04-16T16:33:57.207Z,99349.39
2019-04-16T16:38:59.330Z,99356.91
2019-04-16T16:44:01.179Z,99355.44
2019-04-16T16:49:03.276Z,99365.23
2019-04-16T16:54:06.938Z,99371.10
2019-04-16T16:59:13.276Z,99373.17
2019-04-16T17:04:16.739Z,99370.89
2019-04-16T17:09:20.870Z,99375.67
2019-04-16T17:14:22.653Z,99375.57
2019-04-16T17:19:24.526Z,99379.77
2019-04-16T17:24:28.015Z,99378.81
2019-04-16T17:29:29.814Z,99389.77
2019-04-16T17:34:31.759Z,99393.11
2019-04-16T17:39:42.254Z,99396.64
2019-04-16T17:44:50.287Z,99404.48
2019-04-16T17:50:02.523Z,99412.01
2019-04-16T17:55:08.933Z,99410.47
2019-04-16T18:00:19.468Z,99419.76
2019-04-16T18:05:23.925Z,99429.05
2019-04-16T18:10:36.529Z,99436.37
2019-04-16T18:15:42.745Z,99445.03
2019-04-16T18:20:59.635Z,99448.16
2019-04-16T18:26:13.285Z,99456.09
2019-04-16T18:31:23.364Z,99464.34
2019-04-16T18:36:27.576Z,99465.91
2019-04-16T18:41:31.945Z,99478.13
2019-04-16T18:46:33.547Z,99486.27
2019-04-16T18:51:35.354Z,99490.31
2019-04-16T18:56:37.003Z,99502.08
2019-04-16T19:01:40.649Z,99507.18
2019-04-16T19:06:42.386Z,99511.34
2019-04-16T19:11:45.220Z,99515.75
2019-04-16T19:16:47.100Z,99527.96
2019-04-16T19:21:52.210Z,99533.70
2019-04-16T19:26:52.654Z,99537.12
2019-04-16T19:31:56.906Z,99539.73
2019-04-16T19:36:59.671Z,99546.92
2019-04-16T19:42:02.512Z,99544.91
2019-04-16T19:47:04.203Z,99548.36
2019-04-16T19:52:06.002Z,99549.39
2019-04-16T19:57:08.021Z,99565.34
2019-04-16T20:02:10.000Z,99565.85
2019-04-16T20:07:11.781Z,99570.47
2019-04-16T20:12:13.342Z,99572.53
2019-04-16T20:17:15.119Z,99575.43
2019-04-16T20:22:16.904Z,99571.77
2019-04-16T20:27:19.695Z,99577.60
2019-04-16T20:32:21.989Z,99581.34
2019-04-16T20:37:23.765Z,99584.81
2019-04-16T20:42:25.432Z,99586.14
2019-04-16T20:47:27.204Z,99593.11
2019-04-16T20:52:30.830Z,99584.98
2019-04-16T20:57:32.595Z,99594.20
2019-04-16T21:02:34.331Z,99594.49
2019-04-16T21:07:36.141Z,99600.24
2019-04-16T21:12:37.905Z,99597.53
2019-04-16T21:17:39.570Z,99600.47
2019-04-16T21:22:41.249Z,99601.16
2019-04-16T21:27:44.761Z,99610.55
2019-04-16T21:32:48.726Z,99621.02
2019-04-16T21:37:58.669Z,99619.98
2019-04-16T21:43:00.492Z,99626.25
2019-04-16T21:48:02.301Z,99625.59
2019-04-16T21:53:04.080Z,99621.02
2019-04-16T21:58:05.819Z,99634.06
2019-04-16T22:03:12.336Z,99628.53
2019-04-16T22:08:14.110Z,99632.38
2019-04-16T22:13:19.149Z,99636.84
2019-04-16T22:18:19.606Z,99640.59
2019-04-16T22:23:21.389Z,99651.77
2019-04-16T22:28:23.062Z,99638.20
2019-04-16T22:33:24.707Z,99659.38
2019-04-16T22:38:28.209Z,99654.70
2019-04-16T22:43:34.604Z,99650.81
2019-04-16T22:48:36.386Z,99654.15
2019-04-16T22:53:38.160Z,99657.92
2019-04-16T22:58:49.863Z,99663.86
2019-04-16T23:03:53.355Z,99660.63
2019-04-16T23:08:55.254Z,99654.37
2019-04-16T23:13:57.090Z,99660.41
2019-04-16T23:18:59.168Z,99659.58
2019-04-16T23:24:01.222Z,99664.19
2019-04-16T23:29:04.122Z,99647.08
2019-04-16T23:34:06.968Z,99655.20
2019-04-16T23:39:08.834Z,99657.27
2019-04-16T23:44:22.698Z,99661.66
2019-04-16T23:49:43.209Z,99660.82
2019-04-16T23:54:44.899Z,99659.98
